Hauptseite
METAR-TAF:

METAR-TAF

Flughäfen :

Teheran, Iran

Flughafen Teheran-Mehrabad

Breite: 35-41N, Länge: 051-21E, Höhe: 1204 m

Beobachtung

Neuester Wetterbericht von vor 24 Minuten, um 06:30 UTC
Wind 8 kt aus Süd/Südost
Temperatur 28°C
Luftfeuchtigkeit 9%
Luftdruck 1022 hPa
Sichtweite 10 km oder mehr
Leicht bewölkt in der Höhe von 10000 ft

METAR: OIII 240630Z 15008KT 9999 FEW100 28/M08 Q1022 A3018

Zeit: 10:24 (06:54 UTC)

Prognose

Neuester Wetterbericht von vor 1 Stunde und 54 Minuten, um 05:00 UTC
Gültige Prognose vom 24 um 06 UTC bis 25 um 12 UTC
Wind 8 kt aus Ost/Südost
Sichtweite 10 km oder mehr
keine Wolken unter 1500 m und keine Kumulonimbus oder Gewitterwolken

TAF: OIII 240500Z 2406/2512 12004MPS CAVOK

Wetterbeobachtungen und Prognosen von mehr als 4000 Flughäfen (METAR und TAF Bericht).

Die verfügbaren Stationen werden durch gelbe und rote Markierungen auf der Karte dargestellt.

Führen Sie die Maus auf sie, um den Namen der Station zu sehen.

Darauf klicken, um die Beobachtung von Wetterbeobachtungen und Prognosen zu sehen.

Um die Karte zu ändern : klicken Sie auf den grünen Tasten mit einem schwarzen Kreuz Zum Vergrößern, auf den grünen Button mit einem Gedankenstrich zu verkleinern, oder auf die grünen Pfeile für benachbarte Karten.


METAR-TAF: